sensor_id;sensor_type;location;lat;lon;timestamp;P1;durP1;ratioP1;P2;durP2;ratioP2
30515;SDS011;17297;54.022;10.760;2023-01-30T00:00:28;14.35;;;9.48;;
30515;SDS011;17297;54.022;10.760;2023-01-30T00:02:53;17.35;;;10.40;;
30515;SDS011;17297;54.022;10.760;2023-01-30T00:05:19;14.73;;;10.40;;
30515;SDS011;17297;54.022;10.760;2023-01-30T00:07:45;18.05;;;10.98;;
30515;SDS011;17297;54.022;10.760;2023-01-30T00:10:11;17.88;;;11.55;;
30515;SDS011;17297;54.022;10.760;2023-01-30T00:12:37;17.45;;;9.88;;
30515;SDS011;17297;54.022;10.760;2023-01-30T00:15:02;17.52;;;11.48;;
30515;SDS011;17297;54.022;10.760;2023-01-30T00:17:28;17.83;;;11.75;;
30515;SDS011;17297;54.022;10.760;2023-01-30T00:19:53;18.55;;;11.68;;
30515;SDS011;17297;54.022;10.760;2023-01-30T00:22:18;20.20;;;10.80;;
30515;SDS011;17297;54.022;10.760;2023-01-30T00:24:44;17.80;;;10.68;;
30515;SDS011;17297;54.022;10.760;2023-01-30T00:27:09;21.30;;;12.00;;
30515;SDS011;17297;54.022;10.760;2023-01-30T00:29:35;19.98;;;12.00;;
30515;SDS011;17297;54.022;10.760;2023-01-30T00:32:00;15.27;;;10.15;;
30515;SDS011;17297;54.022;10.760;2023-01-30T00:34:25;18.70;;;10.85;;
30515;SDS011;17297;54.022;10.760;2023-01-30T00:36:51;18.27;;;11.48;;
30515;SDS011;17297;54.022;10.760;2023-01-30T00:39:16;15.90;;;10.55;;
30515;SDS011;17297;54.022;10.760;2023-01-30T00:41:42;15.88;;;10.43;;
30515;SDS011;17297;54.022;10.760;2023-01-30T00:44:26;15.55;;;10.18;;
30515;SDS011;17297;54.022;10.760;2023-01-30T00:47:10;16.17;;;9.95;;
30515;SDS011;17297;54.022;10.760;2023-01-30T00:49:35;16.48;;;10.50;;
30515;SDS011;17297;54.022;10.760;2023-01-30T00:52:02;14.27;;;9.85;;
30515;SDS011;17297;54.022;10.760;2023-01-30T00:54:27;16.52;;;9.77;;
30515;SDS011;17297;54.022;10.760;2023-01-30T00:56:53;15.93;;;9.88;;
30515;SDS011;17297;54.022;10.760;2023-01-30T00:59:18;15.50;;;9.57;;
30515;SDS011;17297;54.022;10.760;2023-01-30T01:01:43;15.35;;;10.30;;
30515;SDS011;17297;54.022;10.760;2023-01-30T01:04:09;16.20;;;10.07;;
30515;SDS011;17297;54.022;10.760;2023-01-30T01:06:36;15.52;;;9.27;;
30515;SDS011;17297;54.022;10.760;2023-01-30T01:09:02;15.07;;;11.10;;
30515;SDS011;17297;54.022;10.760;2023-01-30T01:11:28;15.48;;;9.02;;
30515;SDS011;17297;54.022;10.760;2023-01-30T01:13:57;16.30;;;10.40;;
30515;SDS011;17297;54.022;10.760;2023-01-30T01:16:25;16.73;;;10.75;;
30515;SDS011;17297;54.022;10.760;2023-01-30T01:18:51;13.63;;;9.63;;
30515;SDS011;17297;54.022;10.760;2023-01-30T01:21:17;14.98;;;9.52;;
30515;SDS011;17297;54.022;10.760;2023-01-30T01:23:48;15.25;;;9.45;;
30515;SDS011;17297;54.022;10.760;2023-01-30T01:26:14;13.13;;;10.48;;
30515;SDS011;17297;54.022;10.760;2023-01-30T01:28:41;17.58;;;9.40;;
30515;SDS011;17297;54.022;10.760;2023-01-30T01:31:10;12.85;;;9.23;;
30515;SDS011;17297;54.022;10.760;2023-01-30T01:33:36;13.77;;;9.30;;
30515;SDS011;17297;54.022;10.760;2023-01-30T01:36:02;15.48;;;9.38;;
30515;SDS011;17297;54.022;10.760;2023-01-30T01:38:28;15.48;;;8.57;;
30515;SDS011;17297;54.022;10.760;2023-01-30T01:40:53;15.10;;;8.88;;
30515;SDS011;17297;54.022;10.760;2023-01-30T01:46:45;13.18;;;7.45;;
30515;SDS011;17297;54.022;10.760;2023-01-30T01:56:57;14.48;;;7.95;;
30515;SDS011;17297;54.022;10.760;2023-01-30T01:59:41;12.10;;;8.27;;
30515;SDS011;17297;54.022;10.760;2023-01-30T02:02:10;12.40;;;7.78;;
30515;SDS011;17297;54.022;10.760;2023-01-30T02:04:41;11.68;;;7.35;;
30515;SDS011;17297;54.022;10.760;2023-01-30T02:07:35;11.43;;;7.70;;
30515;SDS011;17297;54.022;10.760;2023-01-30T02:10:03;10.70;;;7.47;;
30515;SDS011;17297;54.022;10.760;2023-01-30T02:12:30;9.63;;;6.45;;
30515;SDS011;17297;54.022;10.760;2023-01-30T02:14:57;10.52;;;6.55;;
30515;SDS011;17297;54.022;10.760;2023-01-30T02:17:24;9.70;;;6.57;;
30515;SDS011;17297;54.022;10.760;2023-01-30T02:20:04;10.88;;;6.95;;
30515;SDS011;17297;54.022;10.760;2023-01-30T02:36:39;11.70;;;6.47;;
30515;SDS011;17297;54.022;10.760;2023-01-30T02:42:43;8.65;;;5.75;;
30515;SDS011;17297;54.022;10.760;2023-01-30T02:45:22;9.00;;;5.05;;
30515;SDS011;17297;54.022;10.760;2023-01-30T02:48:00;11.45;;;6.60;;
30515;SDS011;17297;54.022;10.760;2023-01-30T02:50:29;7.32;;;5.45;;
30515;SDS011;17297;54.022;10.760;2023-01-30T02:53:18;7.72;;;4.90;;
30515;SDS011;17297;54.022;10.760;2023-01-30T02:55:43;6.63;;;4.75;;
30515;SDS011;17297;54.022;10.760;2023-01-30T02:58:09;7.47;;;5.25;;
30515;SDS011;17297;54.022;10.760;2023-01-30T03:03:22;7.03;;;4.65;;
30515;SDS011;17297;54.022;10.760;2023-01-30T03:08:47;6.88;;;4.55;;
30515;SDS011;17297;54.022;10.760;2023-01-30T03:11:27;6.75;;;4.82;;
30515;SDS011;17297;54.022;10.760;2023-01-30T03:14:09;7.35;;;4.38;;
30515;SDS011;17297;54.022;10.760;2023-01-30T03:16:43;7.22;;;4.75;;
30515;SDS011;17297;54.022;10.760;2023-01-30T03:19:11;7.53;;;4.30;;
30515;SDS011;17297;54.022;10.760;2023-01-30T03:21:41;5.93;;;4.30;;
30515;SDS011;17297;54.022;10.760;2023-01-30T03:24:08;6.07;;;3.95;;
30515;SDS011;17297;54.022;10.760;2023-01-30T03:26:35;5.07;;;4.13;;
30515;SDS011;17297;54.022;10.760;2023-01-30T03:29:04;5.63;;;3.90;;
30515;SDS011;17297;54.022;10.760;2023-01-30T03:31:30;7.25;;;4.50;;
30515;SDS011;17297;54.022;10.760;2023-01-30T03:33:55;5.93;;;3.63;;
30515;SDS011;17297;54.022;10.760;2023-01-30T03:36:21;4.18;;;3.13;;
30515;SDS011;17297;54.022;10.760;2023-01-30T03:38:47;5.57;;;3.40;;
30515;SDS011;17297;54.022;10.760;2023-01-30T03:41:13;5.18;;;3.13;;
30515;SDS011;17297;54.022;10.760;2023-01-30T03:43:38;4.60;;;2.58;;
30515;SDS011;17297;54.022;10.760;2023-01-30T03:46:04;4.10;;;2.42;;
30515;SDS011;17297;54.022;10.760;2023-01-30T03:48:30;4.85;;;2.72;;
30515;SDS011;17297;54.022;10.760;2023-01-30T03:50:55;2.72;;;1.95;;
30515;SDS011;17297;54.022;10.760;2023-01-30T03:53:21;2.05;;;1.60;;
30515;SDS011;17297;54.022;10.760;2023-01-30T03:55:47;1.45;;;1.25;;
30515;SDS011;17297;54.022;10.760;2023-01-30T03:58:12;3.03;;;1.40;;
30515;SDS011;17297;54.022;10.760;2023-01-30T04:00:38;3.05;;;1.20;;
30515;SDS011;17297;54.022;10.760;2023-01-30T04:03:03;3.75;;;1.33;;
30515;SDS011;17297;54.022;10.760;2023-01-30T04:05:30;2.00;;;1.15;;
30515;SDS011;17297;54.022;10.760;2023-01-30T04:08:01;4.15;;;0.95;;
30515;SDS011;17297;54.022;10.760;2023-01-30T04:10:26;2.92;;;0.93;;
30515;SDS011;17297;54.022;10.760;2023-01-30T04:12:52;1.75;;;0.93;;
30515;SDS011;17297;54.022;10.760;2023-01-30T04:15:18;2.03;;;1.15;;
30515;SDS011;17297;54.022;10.760;2023-01-30T04:18:03;1.83;;;0.75;;
30515;SDS011;17297;54.022;10.760;2023-01-30T04:20:45;2.45;;;2.15;;
30515;SDS011;17297;54.022;10.760;2023-01-30T04:23:12;1.30;;;0.90;;
30515;SDS011;17297;54.022;10.760;2023-01-30T04:25:38;2.17;;;0.80;;
30515;SDS011;17297;54.022;10.760;2023-01-30T04:28:06;1.63;;;0.82;;
30515;SDS011;17297;54.022;10.760;2023-01-30T04:30:35;1.83;;;0.90;;
30515;SDS011;17297;54.022;10.760;2023-01-30T04:33:23;3.20;;;1.08;;
30515;SDS011;17297;54.022;10.760;2023-01-30T04:35:52;3.17;;;1.20;;
30515;SDS011;17297;54.022;10.760;2023-01-30T04:38:19;1.60;;;0.93;;
30515;SDS011;17297;54.022;10.760;2023-01-30T04:40:52;1.38;;;0.85;;
30515;SDS011;17297;54.022;10.760;2023-01-30T04:43:19;3.60;;;0.90;;
30515;SDS011;17297;54.022;10.760;2023-01-30T04:48:30;2.20;;;0.90;;
30515;SDS011;17297;54.022;10.760;2023-01-30T04:50:57;1.88;;;1.05;;
30515;SDS011;17297;54.022;10.760;2023-01-30T04:53:23;6.65;;;1.48;;
30515;SDS011;17297;54.022;10.760;2023-01-30T04:55:49;1.58;;;0.82;;
30515;SDS011;17297;54.022;10.760;2023-01-30T04:58:15;3.70;;;1.30;;
30515;SDS011;17297;54.022;10.760;2023-01-30T05:00:41;4.53;;;1.52;;
30515;SDS011;17297;54.022;10.760;2023-01-30T05:03:07;6.53;;;1.60;;
30515;SDS011;17297;54.022;10.760;2023-01-30T05:05:32;7.93;;;1.55;;
30515;SDS011;17297;54.022;10.760;2023-01-30T05:07:58;3.25;;;0.98;;
30515;SDS011;17297;54.022;10.760;2023-01-30T05:10:23;2.22;;;1.40;;
30515;SDS011;17297;54.022;10.760;2023-01-30T05:12:49;4.47;;;1.15;;
30515;SDS011;17297;54.022;10.760;2023-01-30T05:15:14;2.72;;;1.58;;
30515;SDS011;17297;54.022;10.760;2023-01-30T05:17:40;3.00;;;1.40;;
30515;SDS011;17297;54.022;10.760;2023-01-30T05:20:06;2.88;;;1.25;;
30515;SDS011;17297;54.022;10.760;2023-01-30T05:22:33;3.85;;;1.35;;
30515;SDS011;17297;54.022;10.760;2023-01-30T05:24:58;4.63;;;1.52;;
30515;SDS011;17297;54.022;10.760;2023-01-30T05:27:24;4.22;;;1.50;;
30515;SDS011;17297;54.022;10.760;2023-01-30T05:29:49;8.82;;;2.50;;
30515;SDS011;17297;54.022;10.760;2023-01-30T05:32:15;5.63;;;1.73;;
30515;SDS011;17297;54.022;10.760;2023-01-30T05:34:41;4.82;;;1.55;;
30515;SDS011;17297;54.022;10.760;2023-01-30T05:37:07;6.97;;;1.50;;
30515;SDS011;17297;54.022;10.760;2023-01-30T05:39:33;3.95;;;1.33;;
30515;SDS011;17297;54.022;10.760;2023-01-30T05:41:59;3.95;;;1.17;;
30515;SDS011;17297;54.022;10.760;2023-01-30T05:44:24;6.82;;;1.70;;
30515;SDS011;17297;54.022;10.760;2023-01-30T05:46:49;3.92;;;1.70;;
30515;SDS011;17297;54.022;10.760;2023-01-30T05:49:15;6.38;;;3.33;;
30515;SDS011;17297;54.022;10.760;2023-01-30T05:51:40;4.68;;;1.50;;
30515;SDS011;17297;54.022;10.760;2023-01-30T05:54:06;9.82;;;1.88;;
30515;SDS011;17297;54.022;10.760;2023-01-30T05:56:31;3.13;;;1.80;;
30515;SDS011;17297;54.022;10.760;2023-01-30T05:58:57;4.18;;;2.10;;
30515;SDS011;17297;54.022;10.760;2023-01-30T06:01:23;7.78;;;1.90;;
30515;SDS011;17297;54.022;10.760;2023-01-30T06:03:49;5.90;;;2.33;;
30515;SDS011;17297;54.022;10.760;2023-01-30T06:06:15;5.90;;;2.28;;
30515;SDS011;17297;54.022;10.760;2023-01-30T06:08:40;8.13;;;1.92;;
30515;SDS011;17297;54.022;10.760;2023-01-30T06:11:07;5.55;;;1.80;;
30515;SDS011;17297;54.022;10.760;2023-01-30T06:13:34;5.18;;;1.75;;
30515;SDS011;17297;54.022;10.760;2023-01-30T06:15:59;6.80;;;2.15;;
30515;SDS011;17297;54.022;10.760;2023-01-30T06:18:25;10.13;;;2.45;;
30515;SDS011;17297;54.022;10.760;2023-01-30T06:20:51;15.48;;;2.53;;
30515;SDS011;17297;54.022;10.760;2023-01-30T06:23:17;10.25;;;2.15;;
30515;SDS011;17297;54.022;10.760;2023-01-30T06:25:44;9.10;;;1.90;;
30515;SDS011;17297;54.022;10.760;2023-01-30T06:28:10;8.63;;;2.22;;
30515;SDS011;17297;54.022;10.760;2023-01-30T06:30:36;7.38;;;2.42;;
30515;SDS011;17297;54.022;10.760;2023-01-30T06:33:01;6.13;;;2.42;;
30515;SDS011;17297;54.022;10.760;2023-01-30T06:35:26;5.03;;;1.83;;
30515;SDS011;17297;54.022;10.760;2023-01-30T06:37:52;10.35;;;2.85;;
30515;SDS011;17297;54.022;10.760;2023-01-30T06:40:17;6.25;;;2.28;;
30515;SDS011;17297;54.022;10.760;2023-01-30T06:42:43;5.68;;;2.58;;
30515;SDS011;17297;54.022;10.760;2023-01-30T06:45:13;6.00;;;2.10;;
30515;SDS011;17297;54.022;10.760;2023-01-30T06:47:49;5.70;;;1.63;;
30515;SDS011;17297;54.022;10.760;2023-01-30T06:50:17;7.45;;;2.15;;
30515;SDS011;17297;54.022;10.760;2023-01-30T06:52:44;9.77;;;3.35;;
30515;SDS011;17297;54.022;10.760;2023-01-30T06:55:11;9.23;;;2.13;;
30515;SDS011;17297;54.022;10.760;2023-01-30T06:57:38;5.97;;;2.10;;
30515;SDS011;17297;54.022;10.760;2023-01-30T07:00:05;9.65;;;2.40;;
30515;SDS011;17297;54.022;10.760;2023-01-30T07:02:31;7.65;;;2.22;;
30515;SDS011;17297;54.022;10.760;2023-01-30T07:04:59;6.60;;;2.55;;
30515;SDS011;17297;54.022;10.760;2023-01-30T07:07:26;9.18;;;2.20;;
30515;SDS011;17297;54.022;10.760;2023-01-30T07:09:51;8.80;;;2.20;;
30515;SDS011;17297;54.022;10.760;2023-01-30T07:12:16;7.93;;;2.15;;
30515;SDS011;17297;54.022;10.760;2023-01-30T07:14:41;8.40;;;2.10;;
30515;SDS011;17297;54.022;10.760;2023-01-30T07:17:07;8.40;;;2.60;;
30515;SDS011;17297;54.022;10.760;2023-01-30T07:19:32;6.65;;;2.08;;
30515;SDS011;17297;54.022;10.760;2023-01-30T07:21:58;5.43;;;3.28;;
30515;SDS011;17297;54.022;10.760;2023-01-30T07:24:23;5.97;;;2.10;;
30515;SDS011;17297;54.022;10.760;2023-01-30T07:26:48;13.10;;;2.30;;
30515;SDS011;17297;54.022;10.760;2023-01-30T07:29:14;7.15;;;3.15;;
30515;SDS011;17297;54.022;10.760;2023-01-30T07:31:39;6.28;;;2.03;;
30515;SDS011;17297;54.022;10.760;2023-01-30T07:34:04;9.43;;;2.60;;
30515;SDS011;17297;54.022;10.760;2023-01-30T07:36:30;8.38;;;1.95;;
30515;SDS011;17297;54.022;10.760;2023-01-30T07:38:57;7.13;;;1.73;;
30515;SDS011;17297;54.022;10.760;2023-01-30T07:41:23;7.63;;;2.17;;
30515;SDS011;17297;54.022;10.760;2023-01-30T07:43:48;6.07;;;1.80;;
30515;SDS011;17297;54.022;10.760;2023-01-30T07:46:14;5.90;;;1.92;;
30515;SDS011;17297;54.022;10.760;2023-01-30T07:48:39;5.57;;;2.13;;
30515;SDS011;17297;54.022;10.760;2023-01-30T07:51:05;7.07;;;1.70;;
30515;SDS011;17297;54.022;10.760;2023-01-30T07:53:30;6.70;;;1.92;;
30515;SDS011;17297;54.022;10.760;2023-01-30T07:55:56;8.75;;;2.67;;
30515;SDS011;17297;54.022;10.760;2023-01-30T07:58:21;11.82;;;2.20;;
30515;SDS011;17297;54.022;10.760;2023-01-30T08:00:46;11.07;;;2.20;;
30515;SDS011;17297;54.022;10.760;2023-01-30T08:03:15;9.15;;;2.05;;
30515;SDS011;17297;54.022;10.760;2023-01-30T08:05:41;6.25;;;1.80;;
30515;SDS011;17297;54.022;10.760;2023-01-30T08:08:08;5.60;;;2.15;;
30515;SDS011;17297;54.022;10.760;2023-01-30T08:10:33;10.32;;;2.40;;
30515;SDS011;17297;54.022;10.760;2023-01-30T08:12:58;5.30;;;2.15;;
30515;SDS011;17297;54.022;10.760;2023-01-30T08:15:23;5.90;;;1.70;;
30515;SDS011;17297;54.022;10.760;2023-01-30T08:17:55;8.10;;;2.58;;
30515;SDS011;17297;54.022;10.760;2023-01-30T08:20:21;6.47;;;1.95;;
30515;SDS011;17297;54.022;10.760;2023-01-30T08:22:47;7.60;;;1.80;;
30515;SDS011;17297;54.022;10.760;2023-01-30T08:25:12;7.88;;;2.35;;
30515;SDS011;17297;54.022;10.760;2023-01-30T08:27:37;17.10;;;5.40;;
30515;SDS011;17297;54.022;10.760;2023-01-30T08:30:03;7.75;;;2.67;;
30515;SDS011;17297;54.022;10.760;2023-01-30T08:32:28;8.88;;;2.30;;
30515;SDS011;17297;54.022;10.760;2023-01-30T08:34:54;7.97;;;2.40;;
30515;SDS011;17297;54.022;10.760;2023-01-30T08:37:19;12.00;;;2.97;;
30515;SDS011;17297;54.022;10.760;2023-01-30T08:39:45;12.32;;;2.25;;
30515;SDS011;17297;54.022;10.760;2023-01-30T08:42:10;6.63;;;2.70;;
30515;SDS011;17297;54.022;10.760;2023-01-30T08:44:35;6.60;;;2.25;;
30515;SDS011;17297;54.022;10.760;2023-01-30T08:47:01;8.52;;;2.70;;
30515;SDS011;17297;54.022;10.760;2023-01-30T08:49:27;8.60;;;2.50;;
30515;SDS011;17297;54.022;10.760;2023-01-30T08:51:52;10.20;;;2.53;;
30515;SDS011;17297;54.022;10.760;2023-01-30T08:54:17;12.00;;;3.05;;
30515;SDS011;17297;54.022;10.760;2023-01-30T08:56:42;9.88;;;3.05;;
30515;SDS011;17297;54.022;10.760;2023-01-30T08:59:08;14.80;;;2.97;;
30515;SDS011;17297;54.022;10.760;2023-01-30T09:01:33;8.73;;;3.20;;
30515;SDS011;17297;54.022;10.760;2023-01-30T09:03:59;10.90;;;3.10;;
30515;SDS011;17297;54.022;10.760;2023-01-30T09:06:24;9.68;;;2.88;;
30515;SDS011;17297;54.022;10.760;2023-01-30T09:08:50;13.07;;;3.65;;
30515;SDS011;17297;54.022;10.760;2023-01-30T09:11:15;13.00;;;2.70;;
30515;SDS011;17297;54.022;10.760;2023-01-30T09:13:41;9.63;;;3.17;;
30515;SDS011;17297;54.022;10.760;2023-01-30T09:16:08;8.30;;;2.58;;
30515;SDS011;17297;54.022;10.760;2023-01-30T09:18:37;8.55;;;2.22;;
30515;SDS011;17297;54.022;10.760;2023-01-30T09:21:04;16.48;;;3.00;;
30515;SDS011;17297;54.022;10.760;2023-01-30T09:23:30;7.30;;;2.17;;
30515;SDS011;17297;54.022;10.760;2023-01-30T09:25:55;6.65;;;2.13;;
30515;SDS011;17297;54.022;10.760;2023-01-30T09:28:21;9.05;;;2.63;;
30515;SDS011;17297;54.022;10.760;2023-01-30T09:30:46;6.95;;;2.80;;
30515;SDS011;17297;54.022;10.760;2023-01-30T09:33:12;5.85;;;1.92;;
30515;SDS011;17297;54.022;10.760;2023-01-30T09:35:40;9.80;;;2.05;;
30515;SDS011;17297;54.022;10.760;2023-01-30T09:38:06;11.93;;;2.35;;
30515;SDS011;17297;54.022;10.760;2023-01-30T09:40:31;6.80;;;2.38;;
30515;SDS011;17297;54.022;10.760;2023-01-30T09:43:07;7.47;;;2.75;;
30515;SDS011;17297;54.022;10.760;2023-01-30T09:45:44;7.18;;;2.03;;
30515;SDS011;17297;54.022;10.760;2023-01-30T09:48:28;5.28;;;2.53;;
30515;SDS011;17297;54.022;10.760;2023-01-30T09:51:06;8.60;;;2.40;;
30515;SDS011;17297;54.022;10.760;2023-01-30T09:54:00;9.45;;;2.88;;
30515;SDS011;17297;54.022;10.760;2023-01-30T09:56:53;9.82;;;2.30;;
30515;SDS011;17297;54.022;10.760;2023-01-30T09:59:34;7.55;;;2.30;;
30515;SDS011;17297;54.022;10.760;2023-01-30T10:05:03;6.50;;;1.92;;
30515;SDS011;17297;54.022;10.760;2023-01-30T10:10:20;8.25;;;2.63;;
30515;SDS011;17297;54.022;10.760;2023-01-30T10:15:51;11.82;;;3.13;;
30515;SDS011;17297;54.022;10.760;2023-01-30T10:18:28;4.60;;;2.08;;
30515;SDS011;17297;54.022;10.760;2023-01-30T10:21:07;5.90;;;1.80;;
30515;SDS011;17297;54.022;10.760;2023-01-30T10:26:27;6.88;;;2.45;;
30515;SDS011;17297;54.022;10.760;2023-01-30T10:29:02;4.78;;;1.80;;
30515;SDS011;17297;54.022;10.760;2023-01-30T10:31:33;3.92;;;1.38;;
30515;SDS011;17297;54.022;10.760;2023-01-30T10:34:20;3.83;;;1.48;;
30515;SDS011;17297;54.022;10.760;2023-01-30T10:36:59;3.85;;;1.40;;
30515;SDS011;17297;54.022;10.760;2023-01-30T10:42:01;4.95;;;1.33;;
30515;SDS011;17297;54.022;10.760;2023-01-30T10:44:33;4.07;;;1.50;;
30515;SDS011;17297;54.022;10.760;2023-01-30T10:47:09;8.68;;;1.80;;
30515;SDS011;17297;54.022;10.760;2023-01-30T10:50:32;4.97;;;1.40;;
30515;SDS011;17297;54.022;10.760;2023-01-30T10:52:44;4.80;;;1.77;;
30515;SDS011;17297;54.022;10.760;2023-01-30T10:55:30;7.00;;;1.65;;
30515;SDS011;17297;54.022;10.760;2023-01-30T10:58:05;6.70;;;2.13;;
30515;SDS011;17297;54.022;10.760;2023-01-30T11:00:37;4.05;;;2.00;;
30515;SDS011;17297;54.022;10.760;2023-01-30T11:06:31;3.92;;;1.30;;
30515;SDS011;17297;54.022;10.760;2023-01-30T11:08:40;3.42;;;1.05;;
30515;SDS011;17297;54.022;10.760;2023-01-30T11:11:26;3.63;;;1.35;;
30515;SDS011;17297;54.022;10.760;2023-01-30T11:14:05;4.03;;;1.35;;
30515;SDS011;17297;54.022;10.760;2023-01-30T11:16:36;4.75;;;1.23;;
30515;SDS011;17297;54.022;10.760;2023-01-30T11:19:10;4.35;;;1.17;;
30515;SDS011;17297;54.022;10.760;2023-01-30T11:21:36;2.53;;;1.33;;
30515;SDS011;17297;54.022;10.760;2023-01-30T11:24:49;4.05;;;1.45;;
30515;SDS011;17297;54.022;10.760;2023-01-30T11:27:10;4.97;;;1.55;;
30515;SDS011;17297;54.022;10.760;2023-01-30T11:29:41;4.07;;;1.42;;
30515;SDS011;17297;54.022;10.760;2023-01-30T11:32:11;4.93;;;1.30;;
30515;SDS011;17297;54.022;10.760;2023-01-30T11:34:40;4.82;;;1.77;;
30515;SDS011;17297;54.022;10.760;2023-01-30T11:37:52;4.50;;;1.13;;
30515;SDS011;17297;54.022;10.760;2023-01-30T11:39:57;3.10;;;1.30;;
30515;SDS011;17297;54.022;10.760;2023-01-30T11:42:28;3.53;;;1.00;;
30515;SDS011;17297;54.022;10.760;2023-01-30T11:44:57;5.97;;;1.50;;
30515;SDS011;17297;54.022;10.760;2023-01-30T11:47:24;3.53;;;1.20;;
30515;SDS011;17297;54.022;10.760;2023-01-30T11:49:52;4.95;;;2.53;;
30515;SDS011;17297;54.022;10.760;2023-01-30T11:52:30;2.55;;;1.45;;
30515;SDS011;17297;54.022;10.760;2023-01-30T11:54:59;3.75;;;2.38;;
30515;SDS011;17297;54.022;10.760;2023-01-30T11:57:42;1.35;;;1.10;;
30515;SDS011;17297;54.022;10.760;2023-01-30T12:00:21;3.63;;;1.13;;
30515;SDS011;17297;54.022;10.760;2023-01-30T12:02:49;4.25;;;1.30;;
30515;SDS011;17297;54.022;10.760;2023-01-30T12:05:24;2.95;;;1.20;;
30515;SDS011;17297;54.022;10.760;2023-01-30T12:08:20;6.05;;;1.30;;
30515;SDS011;17297;54.022;10.760;2023-01-30T12:10:55;3.08;;;1.15;;
30515;SDS011;17297;54.022;10.760;2023-01-30T12:13:37;2.15;;;1.15;;
30515;SDS011;17297;54.022;10.760;2023-01-30T12:16:18;3.42;;;1.20;;
30515;SDS011;17297;54.022;10.760;2023-01-30T12:18:51;6.75;;;2.20;;
30515;SDS011;17297;54.022;10.760;2023-01-30T12:29:58;3.35;;;1.92;;
30515;SDS011;17297;54.022;10.760;2023-01-30T12:32:29;2.63;;;1.23;;
30515;SDS011;17297;54.022;10.760;2023-01-30T12:34:56;3.28;;;1.55;;
30515;SDS011;17297;54.022;10.760;2023-01-30T12:48:30;2.28;;;1.10;;
30515;SDS011;17297;54.022;10.760;2023-01-30T12:56:50;5.47;;;2.03;;
30515;SDS011;17297;54.022;10.760;2023-01-30T12:59:35;4.22;;;1.33;;
30515;SDS011;17297;54.022;10.760;2023-01-30T13:05:00;5.18;;;1.60;;
30515;SDS011;17297;54.022;10.760;2023-01-30T13:15:37;5.07;;;1.65;;
30515;SDS011;17297;54.022;10.760;2023-01-30T13:18:13;6.60;;;2.83;;
30515;SDS011;17297;54.022;10.760;2023-01-30T13:23:17;4.53;;;1.75;;
30515;SDS011;17297;54.022;10.760;2023-01-30T13:25:53;7.03;;;2.03;;
30515;SDS011;17297;54.022;10.760;2023-01-30T13:28:39;10.43;;;2.85;;
30515;SDS011;17297;54.022;10.760;2023-01-30T13:31:10;7.28;;;1.55;;
30515;SDS011;17297;54.022;10.760;2023-01-30T13:33:39;4.75;;;1.45;;
30515;SDS011;17297;54.022;10.760;2023-01-30T13:36:12;2.78;;;1.55;;
30515;SDS011;17297;54.022;10.760;2023-01-30T13:38:52;7.38;;;1.48;;
30515;SDS011;17297;54.022;10.760;2023-01-30T13:41:39;4.22;;;1.48;;
30515;SDS011;17297;54.022;10.760;2023-01-30T13:44:16;6.63;;;1.50;;
30515;SDS011;17297;54.022;10.760;2023-01-30T13:46:45;10.60;;;2.63;;
30515;SDS011;17297;54.022;10.760;2023-01-30T13:49:15;6.65;;;1.88;;
30515;SDS011;17297;54.022;10.760;2023-01-30T13:52:01;7.38;;;1.50;;
30515;SDS011;17297;54.022;10.760;2023-01-30T13:57:28;4.15;;;1.30;;
30515;SDS011;17297;54.022;10.760;2023-01-30T14:08:25;2.50;;;1.10;;
30515;SDS011;17297;54.022;10.760;2023-01-30T14:10:54;4.15;;;1.23;;
30515;SDS011;17297;54.022;10.760;2023-01-30T14:13:21;4.85;;;1.55;;
30515;SDS011;17297;54.022;10.760;2023-01-30T14:15:55;8.10;;;2.00;;
30515;SDS011;17297;54.022;10.760;2023-01-30T14:21:10;5.30;;;1.48;;
30515;SDS011;17297;54.022;10.760;2023-01-30T14:23:38;4.55;;;1.40;;
30515;SDS011;17297;54.022;10.760;2023-01-30T14:26:04;3.72;;;1.30;;
30515;SDS011;17297;54.022;10.760;2023-01-30T14:30:59;7.25;;;2.05;;
30515;SDS011;17297;54.022;10.760;2023-01-30T14:38:22;3.50;;;1.27;;
30515;SDS011;17297;54.022;10.760;2023-01-30T14:48:38;10.18;;;1.92;;
30515;SDS011;17297;54.022;10.760;2023-01-30T15:04:42;6.95;;;1.90;;
30515;SDS011;17297;54.022;10.760;2023-01-30T15:07:12;5.65;;;1.73;;
30515;SDS011;17297;54.022;10.760;2023-01-30T15:09:41;4.25;;;1.90;;
30515;SDS011;17297;54.022;10.760;2023-01-30T15:12:21;7.15;;;2.17;;
30515;SDS011;17297;54.022;10.760;2023-01-30T15:21:01;7.68;;;2.63;;
30515;SDS011;17297;54.022;10.760;2023-01-30T15:26:28;8.82;;;2.20;;
30515;SDS011;17297;54.022;10.760;2023-01-30T15:29:08;8.48;;;2.38;;
30515;SDS011;17297;54.022;10.760;2023-01-30T15:34:20;10.68;;;2.78;;
30515;SDS011;17297;54.022;10.760;2023-01-30T15:36:46;12.57;;;3.45;;
30515;SDS011;17297;54.022;10.760;2023-01-30T15:39:15;9.55;;;2.53;;
30515;SDS011;17297;54.022;10.760;2023-01-30T15:41:43;7.45;;;2.58;;
30515;SDS011;17297;54.022;10.760;2023-01-30T15:49:40;10.63;;;2.58;;
30515;SDS011;17297;54.022;10.760;2023-01-30T15:52:15;9.25;;;2.45;;
30515;SDS011;17297;54.022;10.760;2023-01-30T15:54:47;7.38;;;2.58;;
30515;SDS011;17297;54.022;10.760;2023-01-30T15:57:16;16.13;;;3.92;;
30515;SDS011;17297;54.022;10.760;2023-01-30T15:59:47;14.27;;;3.08;;
30515;SDS011;17297;54.022;10.760;2023-01-30T16:02:14;13.43;;;3.22;;
30515;SDS011;17297;54.022;10.760;2023-01-30T16:04:47;8.38;;;2.63;;
30515;SDS011;17297;54.022;10.760;2023-01-30T16:07:13;10.68;;;4.10;;
30515;SDS011;17297;54.022;10.760;2023-01-30T16:09:56;10.45;;;2.63;;
30515;SDS011;17297;54.022;10.760;2023-01-30T16:12:23;15.40;;;3.03;;
30515;SDS011;17297;54.022;10.760;2023-01-30T16:14:49;11.93;;;3.60;;
30515;SDS011;17297;54.022;10.760;2023-01-30T16:17:15;10.68;;;2.78;;
30515;SDS011;17297;54.022;10.760;2023-01-30T16:19:43;10.88;;;3.38;;
30515;SDS011;17297;54.022;10.760;2023-01-30T16:22:16;11.80;;;2.97;;
30515;SDS011;17297;54.022;10.760;2023-01-30T16:24:44;12.60;;;2.55;;
30515;SDS011;17297;54.022;10.760;2023-01-30T16:27:23;7.88;;;2.80;;
30515;SDS011;17297;54.022;10.760;2023-01-30T16:29:54;11.52;;;2.92;;
30515;SDS011;17297;54.022;10.760;2023-01-30T16:32:23;11.65;;;2.90;;
30515;SDS011;17297;54.022;10.760;2023-01-30T16:35:13;14.32;;;3.10;;
30515;SDS011;17297;54.022;10.760;2023-01-30T16:37:56;14.23;;;3.60;;
30515;SDS011;17297;54.022;10.760;2023-01-30T16:40:24;11.02;;;4.00;;
30515;SDS011;17297;54.022;10.760;2023-01-30T16:43:01;8.43;;;2.72;;
30515;SDS011;17297;54.022;10.760;2023-01-30T16:48:20;10.25;;;2.60;;
30515;SDS011;17297;54.022;10.760;2023-01-30T16:53:24;6.88;;;2.63;;
30515;SDS011;17297;54.022;10.760;2023-01-30T16:55:56;12.50;;;2.90;;
30515;SDS011;17297;54.022;10.760;2023-01-30T16:58:24;9.57;;;2.72;;
30515;SDS011;17297;54.022;10.760;2023-01-30T17:00:56;10.93;;;2.80;;
30515;SDS011;17297;54.022;10.760;2023-01-30T17:03:25;9.95;;;2.42;;
30515;SDS011;17297;54.022;10.760;2023-01-30T17:05:58;8.40;;;2.85;;
30515;SDS011;17297;54.022;10.760;2023-01-30T17:10:54;9.95;;;3.60;;
30515;SDS011;17297;54.022;10.760;2023-01-30T17:13:40;8.18;;;3.88;;
30515;SDS011;17297;54.022;10.760;2023-01-30T17:18:47;6.03;;;2.20;;
30515;SDS011;17297;54.022;10.760;2023-01-30T17:21:13;8.95;;;2.45;;
30515;SDS011;17297;54.022;10.760;2023-01-30T17:23:44;8.35;;;2.40;;
30515;SDS011;17297;54.022;10.760;2023-01-30T17:26:11;8.77;;;2.45;;
30515;SDS011;17297;54.022;10.760;2023-01-30T17:28:39;9.05;;;2.70;;